LPPR/OPO METAR and TAF weather

Enter ICAO airport designator
Station Type Date Time Source
LPPR METAR 2022/08/16 19:30 UTC NOAA

LPPR 161930Z 34012KT 9999 SCT012 SCT020 18/16 Q1016


Station Type Date Time Source
LPPR Decoded METAR 2022/08/16 19:30 UTC NOAA

Porto / Pedras Rubras, Portugal (LPPR) 41-14N 008-41W 77M
Aug 16, 2022 - 03:30 PM EDT / 2022.08.16 1930 UTC
Wind: from the NNW (340 degrees) at 14 MPH (12 KT):0
Visibility: greater than 7 mile(s):0
Sky conditions: partly cloudy
Temperature: 64 F (18 C)
Dew Point: 60 F (16 C)
Relative Humidity: 88%
Pressure (altimeter): 30.00 in. Hg (1016 hPa)
ob: LPPR 161930Z 34012KT 9999 SCT012 SCT020 18/16 Q1016
cycle: 19

Station Type Date Time Source
LPPR TAF 2022/08/16 18:18 UTC NOAA

TAF LPPR 161700Z 1618/1718 33013KT 9999 SCT015
BECMG 1622/1624 34008KT SCT012 PROB40
TEMPO 1700/1708 BKN008
BECMG 1708/1711 32012KT SCT020
BECMG 1712/1714 32017KT CAVOK PROB40
TEMPO 1714/1718 33020G32KT

Example: see airport list